createdAt,value
2022-11-01T17:28:35.996Z,72.31
2022-11-01T17:31:40.089Z,71.20
2022-11-01T17:34:43.691Z,71.14
2022-11-01T17:37:47.323Z,70.15
2022-11-01T17:40:51.193Z,70.00
2022-11-01T17:43:56.204Z,69.77
2022-11-01T17:47:00.725Z,69.97
2022-11-01T17:50:04.397Z,70.40
2022-11-01T17:53:09.004Z,70.80
2022-11-01T17:56:12.572Z,71.76
2022-11-01T17:59:17.587Z,71.06
2022-11-01T18:02:21.327Z,72.39
2022-11-01T18:05:25.601Z,73.61
2022-11-01T18:08:34.474Z,74.06
2022-11-01T18:11:42.867Z,74.96
2022-11-01T18:14:58.156Z,74.50
2022-11-01T18:18:22.678Z,74.56
2022-11-01T18:21:32.503Z,73.56
2022-11-01T18:24:41.128Z,74.48
2022-11-01T18:27:44.641Z,74.86
2022-11-01T18:30:56.098Z,74.91
2022-11-01T18:34:06.008Z,74.53
2022-11-01T18:37:19.489Z,75.22
2022-11-01T18:40:28.071Z,75.66
2022-11-01T18:43:34.294Z,76.04
2022-11-01T18:46:51.344Z,75.97
2022-11-01T18:49:57.237Z,75.70
2022-11-01T18:53:11.131Z,76.10
2022-11-01T18:56:21.515Z,75.77
2022-11-01T18:59:31.061Z,75.89
2022-11-01T19:02:36.276Z,75.16
2022-11-01T19:05:40.112Z,76.33
2022-11-01T19:08:47.030Z,75.44
2022-11-01T19:11:58.379Z,76.68
2022-11-01T19:15:05.509Z,75.10
2022-11-01T19:18:19.523Z,75.59
2022-11-01T19:21:25.258Z,75.34
2022-11-01T19:24:34.469Z,75.26
2022-11-01T19:27:38.125Z,76.20
2022-11-01T19:30:48.193Z,76.38
2022-11-01T19:33:56.513Z,77.13
2022-11-01T19:37:06.104Z,77.21
2022-11-01T19:40:23.853Z,77.66
2022-11-01T19:43:31.093Z,77.99
2022-11-01T19:46:34.784Z,77.83
2022-11-01T19:49:43.480Z,77.74
2022-11-01T19:52:47.651Z,77.91
2022-11-01T19:55:54.268Z,78.62
2022-11-01T19:59:00.106Z,78.91
2022-11-01T20:02:15.160Z,78.26
2022-11-01T20:05:28.695Z,78.25
2022-11-01T20:08:34.358Z,77.67
2022-11-01T20:11:41.571Z,78.47
2022-11-01T20:14:45.374Z,78.87
2022-11-01T20:17:48.917Z,79.15
2022-11-01T20:20:54.023Z,79.46
2022-11-01T20:23:58.716Z,78.81
2022-11-01T20:27:02.305Z,79.62
2022-11-01T20:30:07.470Z,79.30
2022-11-01T20:33:11.076Z,77.63
2022-11-01T20:36:16.016Z,78.25
2022-11-01T20:39:22.708Z,77.19
2022-11-01T20:42:28.514Z,77.32
2022-11-01T20:45:32.093Z,77.44
2022-11-01T20:48:35.648Z,76.47
2022-11-01T20:51:41.224Z,77.28
2022-11-01T20:54:44.753Z,75.95
2022-11-01T20:57:48.365Z,76.77
2022-11-01T21:00:52.475Z,77.93
2022-11-01T21:03:57.543Z,78.80
2022-11-01T21:07:03.568Z,79.02
2022-11-01T21:10:28.001Z,78.93
2022-11-01T21:13:34.144Z,78.99
2022-11-01T21:16:39.292Z,78.39
2022-11-01T21:19:43.179Z,78.70
2022-11-01T21:22:48.089Z,78.18
2022-11-01T21:25:53.583Z,79.22
2022-11-01T21:29:02.377Z,77.09
2022-11-01T21:32:23.555Z,77.87
2022-11-01T21:35:41.058Z,78.82
2022-11-01T21:38:47.792Z,77.65
2022-11-01T21:41:52.844Z,77.20
2022-11-01T21:44:57.769Z,77.32
2022-11-01T21:48:04.153Z,77.48
2022-11-01T21:51:07.872Z,76.63
2022-11-01T21:54:12.898Z,76.67
2022-11-01T21:57:17.488Z,75.06
